Terminal Aerodrome Forecast
Issued by NWS

Home | Current Version | Previous Version | Text Only | Print | Product List | Glossary On
Versions: 1 2 3 4 5 6 7 8 9 10 11 12 13 14 15 16 17 18 19 20 21
000
FTUS43 KGRR 202300
TAFLAN
TAF
KLAN 202340Z 2100/2124 31012G16KT P6SM -DZ OVC025
     FM210100 32008KT P6SM -DZ OVC015
     FM211200 32008KT P6SM BKN025
     FM212100 36010KT P6SM BKN050=

USA.gov is the U.S. government's official web portal to all federal, state and local government web resources and services.